Tamer II — HZTM — position and weather

sailwx.info

Track history (hours):
 
Tides and Currents Weather Stations Pressure Air Temp Water Temp Dewpoint Dewpoint Depression Visibility Wind Speed Wind Dir Waves Ship Positions

Tamer II

Last reported at 2018-Aug-15 02:30 UTC. Time now 2018-Aug-15 02:58 UTC.
Position N 43°32' E 007°03'.

Length 36 m.

Type: Sailing vessel. MMSI: 403663729.

Date/timePositionNaut miles runAvg speedWind from/ knotsBaromVisibWave heightAir tempDewpointWater temp
2018-Aug-15 02:30N 43°32' E 007°03'0 0.0
2018-Aug-15 02:00N 43°32' E 007°03'0 0.0
2018-Aug-15 01:30N 43°32' E 007°03'0 0.0
2018-Aug-15 01:00N 43°32' E 007°03'0 0.0
2018-Aug-15 00:30N 43°32' E 007°03'0 0.0
2018-Aug-15 00:00N 43°32' E 007°03'0 0.0
2018-Aug-14 23:30N 43°32' E 007°03'0 0.0
2018-Aug-14 23:00N 43°32' E 007°03'0 0.0
2018-Aug-14 22:30N 43°32' E 007°03'0 0.0
2018-Aug-14 22:00N 43°32' E 007°03'0 0.0
2018-Aug-14 21:30N 43°32' E 007°03'0 0.0
2018-Aug-14 21:00N 43°32' E 007°03'0 0.0
2018-Aug-14 20:30N 43°32' E 007°03'0 0.0
2018-Aug-14 20:00N 43°32' E 007°03'0 0.0
2018-Aug-14 19:30N 43°32' E 007°03'0 0.0
2018-Aug-14 19:00N 43°32' E 007°03'0 0.0
2018-Aug-14 18:30N 43°32' E 007°03'0 0.0
2018-Aug-14 18:00N 43°32' E 007°03'0 0.0
2018-Aug-14 17:30N 43°32' E 007°03'0 0.0
2018-Aug-14 17:00N 43°32' E 007°03'0 0.0
2018-Aug-14 16:30N 43°32' E 007°03'0 0.0
2018-Aug-14 16:00N 43°32' E 007°03'0 0.0
2018-Aug-14 15:27N 43°32' E 007°03'0 0.0
2018-Aug-14 15:00N 43°32' E 007°03'0 0.0
2018-Aug-14 14:30N 43°32' E 007°03'0 0.0
2018-Aug-14 14:00N 43°32' E 007°03'0 0.0
2018-Aug-14 13:30N 43°32' E 007°03'0 0.0
2018-Aug-14 13:00N 43°32' E 007°03'0 0.0
2018-Aug-14 12:30N 43°32' E 007°03'0 0.0
2018-Aug-14 12:00N 43°32' E 007°03'0 0.0
2018-Aug-14 11:30N 43°32' E 007°03'0 0.0
2018-Aug-14 11:00N 43°32' E 007°03'0 0.0
2018-Aug-14 10:30N 43°32' E 007°03'0 0.0
2018-Aug-14 10:00N 43°32' E 007°03'0 0.7
2018-Aug-14 09:28N 43°32' E 007°03'0 0.0
2018-Aug-14 08:58N 43°32' E 007°03'0 0.1
2018-Aug-14 08:22N 43°32' E 007°03'0 0.0
2018-Aug-14 07:55N 43°32' E 007°03'0 0.0
2018-Aug-14 07:25N 43°32' E 007°03'0 0.1
2018-Aug-14 06:58N 43°32' E 007°03'0 0.0
2018-Aug-14 06:25N 43°32' E 007°03'0 0.0
2018-Aug-14 05:55N 43°32' E 007°03'0 0.0
2018-Aug-14 05:28N 43°32' E 007°03'0 0.0
2018-Aug-14 04:58N 43°32' E 007°03'0 0.0
2018-Aug-14 04:28N 43°32' E 007°03'0 0.0
2018-Aug-14 03:55N 43°32' E 007°03'0 0.0
2018-Aug-14 03:28N 43°32' E 007°03'0 0.0
2018-Aug-14 02:58N 43°32' E 007°03'0 0.0
2018-Aug-14 02:28N 43°32' E 007°03'0 0.0
2018-Aug-14 01:58N 43°32' E 007°03'0 0.0
2018-Aug-14 01:28N 43°32' E 007°03'0 0.0
2018-Aug-14 00:58N 43°32' E 007°03'0 0.0
2018-Aug-14 00:28N 43°32' E 007°03'0 0.0
2018-Aug-13 23:58N 43°32' E 007°03'0 0.0
2018-Aug-13 23:28N 43°32' E 007°03'0 0.0
2018-Aug-13 22:58N 43°32' E 007°03'0 0.0
2018-Aug-13 22:28N 43°32' E 007°03'0 0.0
2018-Aug-13 22:00N 43°32' E 007°03'1 2.8
2018-Aug-13 21:30N 43°32' E 007°05'4 8.6
2018-Aug-13 20:59N 43°29' E 007°10'56 9.4
2018-Aug-13 15:03N 42°55' E 008°10'210.5
2018-Aug-13 14:49N 42°53' E 008°13'31 1.3
2018-Aug-12 15:44N 42°34' E 008°46'2 1.4
2018-Aug-12 14:37N 42°34' E 008°44'0 0.0
2018-Aug-12 14:28N 42°34' E 008°44'0 0.0
2018-Aug-12 13:58N 42°34' E 008°44'0 0.0
2018-Aug-12 13:25N 42°34' E 008°44'0 0.0
2018-Aug-12 12:46N 42°34' E 008°44'0 0.1
2018-Aug-12 12:25N 42°34' E 008°44'0 0.0
2018-Aug-12 11:49N 42°34' E 008°44'0 0.0
2018-Aug-12 11:25N 42°34' E 008°44'0 0.0
2018-Aug-12 10:55N 42°34' E 008°44'  
2018-Aug-07 23:40N 43°39' E 007°36'210.1
2018-Aug-07 23:30N 43°40' E 007°33'510.1
2018-Aug-07 22:58N 43°43' E 007°27'2 3.6
2018-Aug-07 22:29N 43°43' E 007°25'0 0.0
2018-Aug-07 21:47N 43°43' E 007°25'0 0.0
2018-Aug-07 21:14N 43°43' E 007°25'0 0.0
2018-Aug-07 20:53N 43°43' E 007°25'0 0.0
2018-Aug-07 20:23N 43°43' E 007°25'0 0.0
2018-Aug-07 19:35N 43°43' E 007°25'0 0.0
2018-Aug-07 18:11N 43°43' E 007°25'0 0.0
2018-Aug-07 17:59N 43°43' E 007°25'0 0.0
2018-Aug-07 08:05N 43°43' E 007°25'0 0.0
2018-Aug-07 07:41N 43°43' E 007°25'0 0.0
2018-Aug-06 21:00N 43°43' E 007°25'4 4.6
2018-Aug-06 20:03N 43°40' E 007°20'0 7.3
2018-Aug-06 20:00N 43°40' E 007°20'5 7.2
2018-Aug-06 19:22N 43°37' E 007°15'3 7.4
2018-Aug-06 19:00N 43°35' E 007°13'3 6.3
2018-Aug-06 18:28N 43°33' E 007°09'2 4.7
2018-Aug-06 17:57N 43°33' E 007°06'1 0.2
2018-Aug-06 12:30N 43°34' E 007°05'0 0.0
2018-Aug-06 12:00N 43°34' E 007°05'0 0.0
2018-Aug-06 10:57N 43°34' E 007°05'0 0.0
2018-Aug-05 14:39N 43°34' E 007°05'0 0.0
2018-Aug-05 14:15N 43°34' E 007°05'  
Track history (hours):
 
Tides and Currents Weather Stations Pressure Air Temp Water Temp Dewpoint Dewpoint Depression Visibility Wind Speed Wind Dir Waves Ship Positions

Tamer II

Last reported at 2018-Aug-15 02:30 UTC. Time now 2018-Aug-15 02:58 UTC.
Position N 43°32' E 007°03'.

Length 36 m.

Type: Sailing vessel. MMSI: 403663729.

Date/timePositionNaut miles runAvg speedWind from/ knotsBaromVisibWave heightAir tempDewpointWater temp
2018-Aug-15 02:30N 43°32' E 007°03'0 0.0
2018-Aug-15 02:00N 43°32' E 007°03'0 0.0
2018-Aug-15 01:30N 43°32' E 007°03'0 0.0
2018-Aug-15 01:00N 43°32' E 007°03'0 0.0
2018-Aug-15 00:30N 43°32' E 007°03'0 0.0
2018-Aug-15 00:00N 43°32' E 007°03'0 0.0
2018-Aug-14 23:30N 43°32' E 007°03'0 0.0
2018-Aug-14 23:00N 43°32' E 007°03'0 0.0
2018-Aug-14 22:30N 43°32' E 007°03'0 0.0
2018-Aug-14 22:00N 43°32' E 007°03'0 0.0
2018-Aug-14 21:30N 43°32' E 007°03'0 0.0
2018-Aug-14 21:00N 43°32' E 007°03'0 0.0
2018-Aug-14 20:30N 43°32' E 007°03'0 0.0
2018-Aug-14 20:00N 43°32' E 007°03'0 0.0
2018-Aug-14 19:30N 43°32' E 007°03'0 0.0
2018-Aug-14 19:00N 43°32' E 007°03'0 0.0
2018-Aug-14 18:30N 43°32' E 007°03'0 0.0
2018-Aug-14 18:00N 43°32' E 007°03'0 0.0
2018-Aug-14 17:30N 43°32' E 007°03'0 0.0
2018-Aug-14 17:00N 43°32' E 007°03'0 0.0
2018-Aug-14 16:30N 43°32' E 007°03'0 0.0
2018-Aug-14 16:00N 43°32' E 007°03'0 0.0
2018-Aug-14 15:27N 43°32' E 007°03'0 0.0
2018-Aug-14 15:00N 43°32' E 007°03'0 0.0
2018-Aug-14 14:30N 43°32' E 007°03'0 0.0
2018-Aug-14 14:00N 43°32' E 007°03'0 0.0
2018-Aug-14 13:30N 43°32' E 007°03'0 0.0
2018-Aug-14 13:00N 43°32' E 007°03'0 0.0
2018-Aug-14 12:30N 43°32' E 007°03'0 0.0
2018-Aug-14 12:00N 43°32' E 007°03'0 0.0
2018-Aug-14 11:30N 43°32' E 007°03'0 0.0
2018-Aug-14 11:00N 43°32' E 007°03'0 0.0
2018-Aug-14 10:30N 43°32' E 007°03'0 0.0
2018-Aug-14 10:00N 43°32' E 007°03'0 0.7
2018-Aug-14 09:28N 43°32' E 007°03'0 0.0
2018-Aug-14 08:58N 43°32' E 007°03'0 0.1
2018-Aug-14 08:22N 43°32' E 007°03'0 0.0
2018-Aug-14 07:55N 43°32' E 007°03'0 0.0
2018-Aug-14 07:25N 43°32' E 007°03'0 0.1
2018-Aug-14 06:58N 43°32' E 007°03'0 0.0
2018-Aug-14 06:25N 43°32' E 007°03'0 0.0
2018-Aug-14 05:55N 43°32' E 007°03'0 0.0
2018-Aug-14 05:28N 43°32' E 007°03'0 0.0
2018-Aug-14 04:58N 43°32' E 007°03'0 0.0
2018-Aug-14 04:28N 43°32' E 007°03'0 0.0
2018-Aug-14 03:55N 43°32' E 007°03'0 0.0
2018-Aug-14 03:28N 43°32' E 007°03'0 0.0
2018-Aug-14 02:58N 43°32' E 007°03'0 0.0
2018-Aug-14 02:28N 43°32' E 007°03'0 0.0
2018-Aug-14 01:58N 43°32' E 007°03'0 0.0
2018-Aug-14 01:28N 43°32' E 007°03'0 0.0
2018-Aug-14 00:58N 43°32' E 007°03'0 0.0
2018-Aug-14 00:28N 43°32' E 007°03'0 0.0
2018-Aug-13 23:58N 43°32' E 007°03'0 0.0
2018-Aug-13 23:28N 43°32' E 007°03'0 0.0
2018-Aug-13 22:58N 43°32' E 007°03'0 0.0
2018-Aug-13 22:28N 43°32' E 007°03'0 0.0
2018-Aug-13 22:00N 43°32' E 007°03'1 2.8
2018-Aug-13 21:30N 43°32' E 007°05'4 8.6
2018-Aug-13 20:59N 43°29' E 007°10'56 9.4
2018-Aug-13 15:03N 42°55' E 008°10'210.5
2018-Aug-13 14:49N 42°53' E 008°13'31 1.3
2018-Aug-12 15:44N 42°34' E 008°46'2 1.4
2018-Aug-12 14:37N 42°34' E 008°44'0 0.0
2018-Aug-12 14:28N 42°34' E 008°44'0 0.0
2018-Aug-12 13:58N 42°34' E 008°44'0 0.0
2018-Aug-12 13:25N 42°34' E 008°44'0 0.0
2018-Aug-12 12:46N 42°34' E 008°44'0 0.1
2018-Aug-12 12:25N 42°34' E 008°44'0 0.0
2018-Aug-12 11:49N 42°34' E 008°44'0 0.0
2018-Aug-12 11:25N 42°34' E 008°44'0 0.0
2018-Aug-12 10:55N 42°34' E 008°44'  
2018-Aug-07 23:40N 43°39' E 007°36'210.1
2018-Aug-07 23:30N 43°40' E 007°33'510.1
2018-Aug-07 22:58N 43°43' E 007°27'2 3.6
2018-Aug-07 22:29N 43°43' E 007°25'0 0.0
2018-Aug-07 21:47N 43°43' E 007°25'0 0.0
2018-Aug-07 21:14N 43°43' E 007°25'0 0.0
2018-Aug-07 20:53N 43°43' E 007°25'0 0.0
2018-Aug-07 20:23N 43°43' E 007°25'0 0.0
2018-Aug-07 19:35N 43°43' E 007°25'0 0.0
2018-Aug-07 18:11N 43°43' E 007°25'0 0.0
2018-Aug-07 17:59N 43°43' E 007°25'0 0.0
2018-Aug-07 08:05N 43°43' E 007°25'0 0.0
2018-Aug-07 07:41N 43°43' E 007°25'0 0.0
2018-Aug-06 21:00N 43°43' E 007°25'4 4.6
2018-Aug-06 20:03N 43°40' E 007°20'0 7.3
2018-Aug-06 20:00N 43°40' E 007°20'5 7.2
2018-Aug-06 19:22N 43°37' E 007°15'3 7.4
2018-Aug-06 19:00N 43°35' E 007°13'3 6.3
2018-Aug-06 18:28N 43°33' E 007°09'2 4.7
2018-Aug-06 17:57N 43°33' E 007°06'1 0.2
2018-Aug-06 12:30N 43°34' E 007°05'0 0.0
2018-Aug-06 12:00N 43°34' E 007°05'0 0.0
2018-Aug-06 10:57N 43°34' E 007°05'0 0.0
2018-Aug-05 14:39N 43°34' E 007°05'0 0.0
2018-Aug-05 14:15N 43°34' E 007°05'  

Dump ship's entire track history